sensor_id;sensor_type;location;lat;lon;timestamp;P1;durP1;ratioP1;P2;durP2;ratioP2
23304;SDS011;11821;51.456;8.844;2023-02-15T00:01:35;13.85;;;10.13;;
23304;SDS011;11821;51.456;8.844;2023-02-15T00:04:02;14.10;;;10.30;;
23304;SDS011;11821;51.456;8.844;2023-02-15T00:06:29;13.40;;;10.07;;
23304;SDS011;11821;51.456;8.844;2023-02-15T00:08:56;12.95;;;9.48;;
23304;SDS011;11821;51.456;8.844;2023-02-15T00:11:23;16.05;;;10.25;;
23304;SDS011;11821;51.456;8.844;2023-02-15T00:14:15;13.57;;;9.23;;
23304;SDS011;11821;51.456;8.844;2023-02-15T00:16:43;16.00;;;10.35;;
23304;SDS011;11821;51.456;8.844;2023-02-15T00:19:10;14.40;;;10.75;;
23304;SDS011;11821;51.456;8.844;2023-02-15T00:21:37;16.60;;;10.85;;
23304;SDS011;11821;51.456;8.844;2023-02-15T00:24:04;14.13;;;10.48;;
23304;SDS011;11821;51.456;8.844;2023-02-15T00:26:31;12.35;;;9.75;;
23304;SDS011;11821;51.456;8.844;2023-02-15T00:28:58;13.38;;;9.77;;
23304;SDS011;11821;51.456;8.844;2023-02-15T00:31:29;14.43;;;10.15;;
23304;SDS011;11821;51.456;8.844;2023-02-15T00:34:39;13.75;;;10.18;;
23304;SDS011;11821;51.456;8.844;2023-02-15T00:36:47;14.32;;;9.82;;
23304;SDS011;11821;51.456;8.844;2023-02-15T00:39:29;16.65;;;10.45;;
23304;SDS011;11821;51.456;8.844;2023-02-15T00:41:59;14.10;;;10.40;;
23304;SDS011;11821;51.456;8.844;2023-02-15T00:44:27;18.20;;;9.65;;
23304;SDS011;11821;51.456;8.844;2023-02-15T00:46:55;14.82;;;9.48;;
23304;SDS011;11821;51.456;8.844;2023-02-15T00:49:22;16.40;;;10.40;;
23304;SDS011;11821;51.456;8.844;2023-02-15T00:51:48;18.70;;;10.70;;
23304;SDS011;11821;51.456;8.844;2023-02-15T00:54:15;14.45;;;9.98;;
23304;SDS011;11821;51.456;8.844;2023-02-15T00:56:43;17.52;;;10.02;;
23304;SDS011;11821;51.456;8.844;2023-02-15T00:59:09;18.27;;;10.48;;
23304;SDS011;11821;51.456;8.844;2023-02-15T01:01:39;14.10;;;9.38;;
23304;SDS011;11821;51.456;8.844;2023-02-15T01:04:07;16.58;;;10.30;;
23304;SDS011;11821;51.456;8.844;2023-02-15T01:06:34;14.82;;;10.05;;
23304;SDS011;11821;51.456;8.844;2023-02-15T01:09:02;14.63;;;10.05;;
23304;SDS011;11821;51.456;8.844;2023-02-15T01:11:29;16.55;;;9.40;;
23304;SDS011;11821;51.456;8.844;2023-02-15T01:13:57;13.13;;;9.25;;
23304;SDS011;11821;51.456;8.844;2023-02-15T01:16:26;14.63;;;9.77;;
23304;SDS011;11821;51.456;8.844;2023-02-15T01:18:54;16.25;;;10.40;;
23304;SDS011;11821;51.456;8.844;2023-02-15T01:21:22;14.25;;;9.73;;
23304;SDS011;11821;51.456;8.844;2023-02-15T01:23:48;15.15;;;10.23;;
23304;SDS011;11821;51.456;8.844;2023-02-15T01:26:16;15.27;;;9.80;;
23304;SDS011;11821;51.456;8.844;2023-02-15T01:28:43;12.35;;;8.50;;
23304;SDS011;11821;51.456;8.844;2023-02-15T01:31:11;14.93;;;9.93;;
23304;SDS011;11821;51.456;8.844;2023-02-15T01:33:39;14.95;;;9.85;;
23304;SDS011;11821;51.456;8.844;2023-02-15T01:36:11;13.38;;;9.98;;
23304;SDS011;11821;51.456;8.844;2023-02-15T01:38:38;17.08;;;9.90;;
23304;SDS011;11821;51.456;8.844;2023-02-15T01:41:08;14.23;;;10.05;;
23304;SDS011;11821;51.456;8.844;2023-02-15T01:43:49;14.45;;;9.45;;
23304;SDS011;11821;51.456;8.844;2023-02-15T01:46:19;16.65;;;9.98;;
23304;SDS011;11821;51.456;8.844;2023-02-15T01:48:54;14.23;;;10.07;;
23304;SDS011;11821;51.456;8.844;2023-02-15T01:51:24;14.07;;;9.43;;
23304;SDS011;11821;51.456;8.844;2023-02-15T01:54:05;15.23;;;10.02;;
23304;SDS011;11821;51.456;8.844;2023-02-15T01:56:35;14.77;;;9.50;;
23304;SDS011;11821;51.456;8.844;2023-02-15T01:59:06;15.85;;;10.13;;
23304;SDS011;11821;51.456;8.844;2023-02-15T02:06:30;13.98;;;9.90;;
23304;SDS011;11821;51.456;8.844;2023-02-15T02:08:58;16.15;;;10.23;;
23304;SDS011;11821;51.456;8.844;2023-02-15T02:11:24;14.73;;;8.88;;
23304;SDS011;11821;51.456;8.844;2023-02-15T02:13:51;11.13;;;8.68;;
23304;SDS011;11821;51.456;8.844;2023-02-15T02:16:41;15.50;;;10.02;;
23304;SDS011;11821;51.456;8.844;2023-02-15T02:19:31;14.32;;;9.55;;
23304;SDS011;11821;51.456;8.844;2023-02-15T02:30:04;14.13;;;9.30;;
23304;SDS011;11821;51.456;8.844;2023-02-15T02:32:57;15.00;;;9.82;;
23304;SDS011;11821;51.456;8.844;2023-02-15T02:35:30;15.07;;;9.73;;
23304;SDS011;11821;51.456;8.844;2023-02-15T02:43:14;16.08;;;10.45;;
23304;SDS011;11821;51.456;8.844;2023-02-15T02:45:43;17.08;;;9.70;;
23304;SDS011;11821;51.456;8.844;2023-02-15T02:48:19;16.08;;;10.95;;
23304;SDS011;11821;51.456;8.844;2023-02-15T02:50:48;19.23;;;12.23;;
23304;SDS011;11821;51.456;8.844;2023-02-15T02:53:15;22.17;;;12.90;;
23304;SDS011;11821;51.456;8.844;2023-02-15T02:55:47;19.33;;;11.45;;
23304;SDS011;11821;51.456;8.844;2023-02-15T02:58:17;18.42;;;10.45;;
23304;SDS011;11821;51.456;8.844;2023-02-15T03:01:06;15.00;;;9.88;;
23304;SDS011;11821;51.456;8.844;2023-02-15T03:03:37;27.08;;;13.73;;
23304;SDS011;11821;51.456;8.844;2023-02-15T03:06:06;26.73;;;13.23;;
23304;SDS011;11821;51.456;8.844;2023-02-15T03:08:40;24.75;;;13.95;;
23304;SDS011;11821;51.456;8.844;2023-02-15T03:11:08;29.95;;;14.25;;
23304;SDS011;11821;51.456;8.844;2023-02-15T03:13:35;17.88;;;11.70;;
23304;SDS011;11821;51.456;8.844;2023-02-15T03:16:04;19.42;;;11.90;;
23304;SDS011;11821;51.456;8.844;2023-02-15T03:21:25;18.67;;;11.70;;
23304;SDS011;11821;51.456;8.844;2023-02-15T03:24:13;16.83;;;10.57;;
23304;SDS011;11821;51.456;8.844;2023-02-15T03:26:41;21.10;;;11.63;;
23304;SDS011;11821;51.456;8.844;2023-02-15T03:29:09;87.43;;;15.82;;
23304;SDS011;11821;51.456;8.844;2023-02-15T03:31:37;93.75;;;15.60;;
23304;SDS011;11821;51.456;8.844;2023-02-15T03:34:06;141.60;;;17.45;;
23304;SDS011;11821;51.456;8.844;2023-02-15T03:39:16;98.55;;;16.60;;
23304;SDS011;11821;51.456;8.844;2023-02-15T03:41:49;106.05;;;17.42;;
23304;SDS011;11821;51.456;8.844;2023-02-15T03:44:23;35.42;;;16.00;;
23304;SDS011;11821;51.456;8.844;2023-02-15T03:46:56;42.00;;;13.60;;
23304;SDS011;11821;51.456;8.844;2023-02-15T03:49:26;40.35;;;17.77;;
23304;SDS011;11821;51.456;8.844;2023-02-15T03:51:55;41.10;;;17.95;;
23304;SDS011;11821;51.456;8.844;2023-02-15T03:54:24;37.72;;;14.10;;
23304;SDS011;11821;51.456;8.844;2023-02-15T03:57:12;42.15;;;17.35;;
23304;SDS011;11821;51.456;8.844;2023-02-15T03:59:58;54.25;;;17.20;;
23304;SDS011;11821;51.456;8.844;2023-02-15T04:03:31;29.42;;;12.68;;
23304;SDS011;11821;51.456;8.844;2023-02-15T04:05:30;44.85;;;14.65;;
23304;SDS011;11821;51.456;8.844;2023-02-15T04:07:56;50.08;;;14.27;;
23304;SDS011;11821;51.456;8.844;2023-02-15T04:10:23;65.85;;;14.95;;
23304;SDS011;11821;51.456;8.844;2023-02-15T04:13:08;42.15;;;15.63;;
23304;SDS011;11821;51.456;8.844;2023-02-15T04:15:34;23.80;;;12.27;;
23304;SDS011;11821;51.456;8.844;2023-02-15T04:18:19;19.63;;;11.60;;
23304;SDS011;11821;51.456;8.844;2023-02-15T04:20:46;77.63;;;13.98;;
23304;SDS011;11821;51.456;8.844;2023-02-15T04:23:31;19.77;;;11.65;;
23304;SDS011;11821;51.456;8.844;2023-02-15T04:26:16;17.23;;;10.80;;
23304;SDS011;11821;51.456;8.844;2023-02-15T04:28:43;26.25;;;13.05;;
23304;SDS011;11821;51.456;8.844;2023-02-15T04:31:09;18.17;;;10.65;;
23304;SDS011;11821;51.456;8.844;2023-02-15T04:33:36;33.88;;;15.77;;
23304;SDS011;11821;51.456;8.844;2023-02-15T04:36:03;29.88;;;13.13;;
23304;SDS011;11821;51.456;8.844;2023-02-15T04:38:30;33.50;;;15.18;;
23304;SDS011;11821;51.456;8.844;2023-02-15T04:40:59;52.72;;;29.25;;
23304;SDS011;11821;51.456;8.844;2023-02-15T04:43:28;38.22;;;16.27;;
23304;SDS011;11821;51.456;8.844;2023-02-15T04:45:54;55.67;;;14.18;;
23304;SDS011;11821;51.456;8.844;2023-02-15T04:48:21;54.90;;;13.90;;
23304;SDS011;11821;51.456;8.844;2023-02-15T04:50:47;47.97;;;14.25;;
23304;SDS011;11821;51.456;8.844;2023-02-15T04:53:14;83.53;;;13.32;;
23304;SDS011;11821;51.456;8.844;2023-02-15T04:55:42;114.78;;;14.57;;
23304;SDS011;11821;51.456;8.844;2023-02-15T04:58:09;77.43;;;13.65;;
23304;SDS011;11821;51.456;8.844;2023-02-15T05:00:35;86.15;;;15.13;;
23304;SDS011;11821;51.456;8.844;2023-02-15T05:03:02;57.47;;;14.50;;
23304;SDS011;11821;51.456;8.844;2023-02-15T05:05:28;51.55;;;12.73;;
23304;SDS011;11821;51.456;8.844;2023-02-15T05:07:55;50.80;;;15.40;;
23304;SDS011;11821;51.456;8.844;2023-02-15T05:10:22;78.35;;;16.08;;
23304;SDS011;11821;51.456;8.844;2023-02-15T05:12:48;67.00;;;16.20;;
23304;SDS011;11821;51.456;8.844;2023-02-15T05:15:15;88.57;;;29.92;;
23304;SDS011;11821;51.456;8.844;2023-02-15T05:17:41;59.40;;;13.27;;
23304;SDS011;11821;51.456;8.844;2023-02-15T05:20:08;47.75;;;13.05;;
23304;SDS011;11821;51.456;8.844;2023-02-15T05:22:34;92.35;;;15.98;;
23304;SDS011;11821;51.456;8.844;2023-02-15T05:25:01;114.80;;;16.80;;
23304;SDS011;11821;51.456;8.844;2023-02-15T05:27:46;59.40;;;14.60;;
23304;SDS011;11821;51.456;8.844;2023-02-15T05:30:31;51.42;;;13.43;;
23304;SDS011;11821;51.456;8.844;2023-02-15T05:32:58;68.88;;;15.35;;
23304;SDS011;11821;51.456;8.844;2023-02-15T05:35:24;67.93;;;16.15;;
23304;SDS011;11821;51.456;8.844;2023-02-15T05:37:51;54.95;;;14.00;;
23304;SDS011;11821;51.456;8.844;2023-02-15T05:40:17;88.55;;;14.90;;
23304;SDS011;11821;51.456;8.844;2023-02-15T05:42:44;42.40;;;13.05;;
23304;SDS011;11821;51.456;8.844;2023-02-15T05:45:10;32.95;;;13.15;;
23304;SDS011;11821;51.456;8.844;2023-02-15T05:47:37;31.75;;;12.23;;
23304;SDS011;11821;51.456;8.844;2023-02-15T05:50:03;35.83;;;12.43;;
23304;SDS011;11821;51.456;8.844;2023-02-15T05:52:30;53.47;;;13.73;;
23304;SDS011;11821;51.456;8.844;2023-02-15T05:54:57;42.95;;;13.15;;
23304;SDS011;11821;51.456;8.844;2023-02-15T05:57:26;29.38;;;13.05;;
23304;SDS011;11821;51.456;8.844;2023-02-15T05:59:52;26.40;;;10.63;;
23304;SDS011;11821;51.456;8.844;2023-02-15T06:02:19;31.98;;;12.27;;
23304;SDS011;11821;51.456;8.844;2023-02-15T06:04:45;30.98;;;13.40;;
23304;SDS011;11821;51.456;8.844;2023-02-15T06:07:12;58.78;;;12.48;;
23304;SDS011;11821;51.456;8.844;2023-02-15T06:09:38;32.83;;;13.38;;
23304;SDS011;11821;51.456;8.844;2023-02-15T06:12:05;52.00;;;13.23;;
23304;SDS011;11821;51.456;8.844;2023-02-15T06:14:32;35.92;;;12.88;;
23304;SDS011;11821;51.456;8.844;2023-02-15T06:16:58;29.10;;;12.10;;
23304;SDS011;11821;51.456;8.844;2023-02-15T06:19:25;29.88;;;11.82;;
23304;SDS011;11821;51.456;8.844;2023-02-15T06:21:51;38.92;;;12.05;;
23304;SDS011;11821;51.456;8.844;2023-02-15T06:24:18;21.75;;;11.93;;
23304;SDS011;11821;51.456;8.844;2023-02-15T06:26:44;36.35;;;12.57;;
23304;SDS011;11821;51.456;8.844;2023-02-15T06:29:11;18.30;;;11.13;;
23304;SDS011;11821;51.456;8.844;2023-02-15T06:31:37;25.52;;;11.70;;
23304;SDS011;11821;51.456;8.844;2023-02-15T06:34:04;26.58;;;12.10;;
23304;SDS011;11821;51.456;8.844;2023-02-15T06:36:31;27.38;;;12.30;;
23304;SDS011;11821;51.456;8.844;2023-02-15T06:38:57;28.52;;;12.00;;
23304;SDS011;11821;51.456;8.844;2023-02-15T06:41:24;24.45;;;11.80;;
23304;SDS011;11821;51.456;8.844;2023-02-15T06:43:50;37.05;;;13.02;;
23304;SDS011;11821;51.456;8.844;2023-02-15T06:46:17;21.73;;;11.82;;
23304;SDS011;11821;51.456;8.844;2023-02-15T06:48:44;60.35;;;13.27;;
23304;SDS011;11821;51.456;8.844;2023-02-15T06:51:10;36.53;;;13.23;;
23304;SDS011;11821;51.456;8.844;2023-02-15T06:53:37;24.02;;;11.82;;
23304;SDS011;11821;51.456;8.844;2023-02-15T06:56:07;29.08;;;11.80;;
23304;SDS011;11821;51.456;8.844;2023-02-15T06:58:42;26.10;;;12.38;;
23304;SDS011;11821;51.456;8.844;2023-02-15T07:01:11;29.65;;;11.77;;
23304;SDS011;11821;51.456;8.844;2023-02-15T07:03:38;20.10;;;11.50;;
23304;SDS011;11821;51.456;8.844;2023-02-15T07:06:04;36.08;;;12.73;;
23304;SDS011;11821;51.456;8.844;2023-02-15T07:08:34;26.27;;;11.82;;
23304;SDS011;11821;51.456;8.844;2023-02-15T07:11:00;44.28;;;12.23;;
23304;SDS011;11821;51.456;8.844;2023-02-15T07:13:47;22.90;;;11.55;;
23304;SDS011;11821;51.456;8.844;2023-02-15T07:16:14;28.83;;;11.48;;
23304;SDS011;11821;51.456;8.844;2023-02-15T07:18:40;30.42;;;12.10;;
23304;SDS011;11821;51.456;8.844;2023-02-15T07:21:07;24.00;;;11.23;;
23304;SDS011;11821;51.456;8.844;2023-02-15T07:23:36;20.83;;;12.38;;
23304;SDS011;11821;51.456;8.844;2023-02-15T07:26:04;22.95;;;11.93;;
23304;SDS011;11821;51.456;8.844;2023-02-15T07:28:31;23.00;;;11.80;;
23304;SDS011;11821;51.456;8.844;2023-02-15T07:30:57;23.10;;;12.00;;
23304;SDS011;11821;51.456;8.844;2023-02-15T07:33:24;20.30;;;11.68;;
23304;SDS011;11821;51.456;8.844;2023-02-15T07:38:19;25.98;;;12.48;;
23304;SDS011;11821;51.456;8.844;2023-02-15T07:40:46;22.20;;;11.60;;
23304;SDS011;11821;51.456;8.844;2023-02-15T07:43:13;18.33;;;12.10;;
23304;SDS011;11821;51.456;8.844;2023-02-15T07:45:41;27.95;;;13.50;;
23304;SDS011;11821;51.456;8.844;2023-02-15T07:48:07;20.48;;;12.48;;
23304;SDS011;11821;51.456;8.844;2023-02-15T07:50:34;28.00;;;13.73;;
23304;SDS011;11821;51.456;8.844;2023-02-15T07:53:01;29.17;;;16.23;;
23304;SDS011;11821;51.456;8.844;2023-02-15T07:55:28;32.38;;;14.32;;
23304;SDS011;11821;51.456;8.844;2023-02-15T07:57:55;28.38;;;14.85;;
23304;SDS011;11821;51.456;8.844;2023-02-15T08:00:22;29.70;;;15.15;;
23304;SDS011;11821;51.456;8.844;2023-02-15T08:02:50;25.17;;;12.02;;
23304;SDS011;11821;51.456;8.844;2023-02-15T08:05:38;26.13;;;14.68;;
23304;SDS011;11821;51.456;8.844;2023-02-15T08:08:04;30.13;;;15.45;;
23304;SDS011;11821;51.456;8.844;2023-02-15T08:10:31;37.67;;;16.35;;
23304;SDS011;11821;51.456;8.844;2023-02-15T08:13:16;38.55;;;16.17;;
23304;SDS011;11821;51.456;8.844;2023-02-15T08:15:49;33.10;;;15.98;;
23304;SDS011;11821;51.456;8.844;2023-02-15T08:18:16;33.42;;;16.35;;
23304;SDS011;11821;51.456;8.844;2023-02-15T08:20:42;33.80;;;15.95;;
23304;SDS011;11821;51.456;8.844;2023-02-15T08:23:09;35.20;;;16.42;;
23304;SDS011;11821;51.456;8.844;2023-02-15T08:25:35;25.45;;;13.85;;
23304;SDS011;11821;51.456;8.844;2023-02-15T08:28:02;26.42;;;13.75;;
23304;SDS011;11821;51.456;8.844;2023-02-15T08:30:28;38.47;;;17.48;;
23304;SDS011;11821;51.456;8.844;2023-02-15T08:32:55;56.42;;;21.42;;
23304;SDS011;11821;51.456;8.844;2023-02-15T08:35:21;46.33;;;19.63;;
23304;SDS011;11821;51.456;8.844;2023-02-15T08:37:48;42.20;;;19.75;;
23304;SDS011;11821;51.456;8.844;2023-02-15T08:40:14;33.22;;;17.90;;
23304;SDS011;11821;51.456;8.844;2023-02-15T08:42:41;28.55;;;15.32;;
23304;SDS011;11821;51.456;8.844;2023-02-15T08:45:08;30.50;;;15.63;;
23304;SDS011;11821;51.456;8.844;2023-02-15T08:47:34;27.27;;;16.58;;
23304;SDS011;11821;51.456;8.844;2023-02-15T08:50:04;48.58;;;24.45;;
23304;SDS011;11821;51.456;8.844;2023-02-15T08:52:31;83.55;;;38.15;;
23304;SDS011;11821;51.456;8.844;2023-02-15T08:54:57;74.10;;;33.42;;
23304;SDS011;11821;51.456;8.844;2023-02-15T08:57:24;72.18;;;32.22;;
23304;SDS011;11821;51.456;8.844;2023-02-15T08:59:50;53.03;;;27.80;;
23304;SDS011;11821;51.456;8.844;2023-02-15T09:02:20;43.67;;;22.88;;
23304;SDS011;11821;51.456;8.844;2023-02-15T09:04:46;31.70;;;17.52;;
23304;SDS011;11821;51.456;8.844;2023-02-15T09:07:13;18.90;;;12.70;;
23304;SDS011;11821;51.456;8.844;2023-02-15T09:09:40;18.40;;;12.40;;
23304;SDS011;11821;51.456;8.844;2023-02-15T09:12:06;35.47;;;20.10;;
23304;SDS011;11821;51.456;8.844;2023-02-15T09:14:33;21.55;;;13.38;;
23304;SDS011;11821;51.456;8.844;2023-02-15T09:16:59;42.45;;;25.83;;
23304;SDS011;11821;51.456;8.844;2023-02-15T09:19:26;33.00;;;19.02;;
23304;SDS011;11821;51.456;8.844;2023-02-15T09:21:53;16.85;;;11.35;;
23304;SDS011;11821;51.456;8.844;2023-02-15T09:24:19;17.48;;;12.35;;
23304;SDS011;11821;51.456;8.844;2023-02-15T09:26:47;14.32;;;10.32;;
23304;SDS011;11821;51.456;8.844;2023-02-15T09:29:14;22.65;;;16.30;;
23304;SDS011;11821;51.456;8.844;2023-02-15T09:31:48;14.23;;;10.05;;
23304;SDS011;11821;51.456;8.844;2023-02-15T09:34:17;11.98;;;10.45;;
23304;SDS011;11821;51.456;8.844;2023-02-15T09:36:44;11.70;;;9.32;;
23304;SDS011;11821;51.456;8.844;2023-02-15T09:39:11;11.48;;;8.50;;
23304;SDS011;11821;51.456;8.844;2023-02-15T09:52:29;12.57;;;9.38;;
23304;SDS011;11821;51.456;8.844;2023-02-15T09:57:32;10.32;;;8.50;;
23304;SDS011;11821;51.456;8.844;2023-02-15T10:02:42;12.50;;;7.82;;
23304;SDS011;11821;51.456;8.844;2023-02-15T10:15:24;11.77;;;8.27;;
23304;SDS011;11821;51.456;8.844;2023-02-15T10:25:46;10.18;;;8.73;;
23304;SDS011;11821;51.456;8.844;2023-02-15T10:28:20;8.18;;;6.88;;
23304;SDS011;11821;51.456;8.844;2023-02-15T10:30:50;11.10;;;8.57;;
23304;SDS011;11821;51.456;8.844;2023-02-15T11:06:42;8.85;;;7.40;;
23304;SDS011;11821;51.456;8.844;2023-02-15T11:09:13;9.07;;;7.88;;
23304;SDS011;11821;51.456;8.844;2023-02-15T11:11:44;8.30;;;7.30;;
23304;SDS011;11821;51.456;8.844;2023-02-15T11:16:40;9.32;;;7.97;;
23304;SDS011;11821;51.456;8.844;2023-02-15T11:19:14;8.70;;;7.53;;
23304;SDS011;11821;51.456;8.844;2023-02-15T11:21:43;8.27;;;6.72;;
23304;SDS011;11821;51.456;8.844;2023-02-15T11:24:12;9.10;;;6.68;;
23304;SDS011;11821;51.456;8.844;2023-02-15T11:26:43;9.10;;;7.13;;
23304;SDS011;11821;51.456;8.844;2023-02-15T11:29:18;8.93;;;7.95;;
23304;SDS011;11821;51.456;8.844;2023-02-15T11:31:46;9.18;;;7.25;;
23304;SDS011;11821;51.456;8.844;2023-02-15T11:34:18;8.18;;;7.30;;
23304;SDS011;11821;51.456;8.844;2023-02-15T11:36:46;8.85;;;7.93;;
23304;SDS011;11821;51.456;8.844;2023-02-15T11:39:15;9.65;;;8.05;;
23304;SDS011;11821;51.456;8.844;2023-02-15T11:41:44;10.55;;;8.27;;
23304;SDS011;11821;51.456;8.844;2023-02-15T11:44:29;7.85;;;7.05;;
23304;SDS011;11821;51.456;8.844;2023-02-15T11:46:58;13.90;;;11.32;;
23304;SDS011;11821;51.456;8.844;2023-02-15T11:49:33;8.60;;;7.50;;
23304;SDS011;11821;51.456;8.844;2023-02-15T11:52:00;8.98;;;7.45;;
23304;SDS011;11821;51.456;8.844;2023-02-15T11:54:30;11.55;;;9.70;;
23304;SDS011;11821;51.456;8.844;2023-02-15T11:57:04;8.57;;;7.68;;
23304;SDS011;11821;51.456;8.844;2023-02-15T11:59:37;7.78;;;6.97;;
23304;SDS011;11821;51.456;8.844;2023-02-15T12:02:17;8.20;;;7.38;;
23304;SDS011;11821;51.456;8.844;2023-02-15T12:04:46;9.38;;;7.07;;
23304;SDS011;11821;51.456;8.844;2023-02-15T12:07:23;7.82;;;7.03;;
23304;SDS011;11821;51.456;8.844;2023-02-15T12:10:03;7.78;;;6.85;;
23304;SDS011;11821;51.456;8.844;2023-02-15T12:12:33;8.45;;;7.63;;
23304;SDS011;11821;51.456;8.844;2023-02-15T12:15:10;9.90;;;8.25;;
23304;SDS011;11821;51.456;8.844;2023-02-15T12:22:39;8.75;;;6.82;;
23304;SDS011;11821;51.456;8.844;2023-02-15T12:27:47;7.20;;;6.50;;
23304;SDS011;11821;51.456;8.844;2023-02-15T12:32:48;8.10;;;7.30;;
23304;SDS011;11821;51.456;8.844;2023-02-15T12:35:32;9.30;;;7.30;;
23304;SDS011;11821;51.456;8.844;2023-02-15T12:38:21;7.82;;;7.07;;
23304;SDS011;11821;51.456;8.844;2023-02-15T12:41:00;8.70;;;7.80;;
23304;SDS011;11821;51.456;8.844;2023-02-15T12:43:34;8.27;;;7.25;;
23304;SDS011;11821;51.456;8.844;2023-02-15T12:48:46;9.25;;;7.97;;
23304;SDS011;11821;51.456;8.844;2023-02-15T12:51:14;8.75;;;7.45;;
23304;SDS011;11821;51.456;8.844;2023-02-15T12:53:41;8.02;;;7.22;;
23304;SDS011;11821;51.456;8.844;2023-02-15T12:56:08;7.45;;;6.68;;
23304;SDS011;11821;51.456;8.844;2023-02-15T12:58:36;7.28;;;6.57;;
23304;SDS011;11821;51.456;8.844;2023-02-15T13:03:30;7.30;;;6.60;;
23304;SDS011;11821;51.456;8.844;2023-02-15T13:05:56;7.47;;;6.78;;
23304;SDS011;11821;51.456;8.844;2023-02-15T13:08:28;7.45;;;6.72;;
23304;SDS011;11821;51.456;8.844;2023-02-15T13:13:25;7.78;;;7.07;;
23304;SDS011;11821;51.456;8.844;2023-02-15T13:15:54;8.10;;;7.30;;
23304;SDS011;11821;51.456;8.844;2023-02-15T13:18:42;8.60;;;7.70;;
23304;SDS011;11821;51.456;8.844;2023-02-15T13:23:39;8.80;;;7.93;;
23304;SDS011;11821;51.456;8.844;2023-02-15T13:26:10;9.27;;;7.72;;
23304;SDS011;11821;51.456;8.844;2023-02-15T13:28:41;8.82;;;7.88;;
23304;SDS011;11821;51.456;8.844;2023-02-15T13:31:12;8.23;;;7.43;;
23304;SDS011;11821;51.456;8.844;2023-02-15T13:33:39;8.65;;;7.75;;
23304;SDS011;11821;51.456;8.844;2023-02-15T13:36:09;8.90;;;8.00;;
23304;SDS011;11821;51.456;8.844;2023-02-15T13:38:45;9.18;;;8.27;;
23304;SDS011;11821;51.456;8.844;2023-02-15T13:41:15;9.25;;;8.23;;
23304;SDS011;11821;51.456;8.844;2023-02-15T13:47:13;8.82;;;7.93;;
23304;SDS011;11821;51.456;8.844;2023-02-15T13:51:57;11.15;;;8.70;;
23304;SDS011;11821;51.456;8.844;2023-02-15T13:59:29;15.18;;;12.38;;
23304;SDS011;11821;51.456;8.844;2023-02-15T14:22:45;11.70;;;10.50;;
23304;SDS011;11821;51.456;8.844;2023-02-15T14:27:43;13.02;;;10.57;;
23304;SDS011;11821;51.456;8.844;2023-02-15T14:30:19;10.88;;;9.68;;
23304;SDS011;11821;51.456;8.844;2023-02-15T14:32:51;15.05;;;10.02;;
23304;SDS011;11821;51.456;8.844;2023-02-15T14:35:20;12.55;;;10.40;;
23304;SDS011;11821;51.456;8.844;2023-02-15T14:37:57;11.48;;;10.15;;
23304;SDS011;11821;51.456;8.844;2023-02-15T14:48:39;13.10;;;10.68;;
23304;SDS011;11821;51.456;8.844;2023-02-15T14:51:08;15.27;;;11.30;;
23304;SDS011;11821;51.456;8.844;2023-02-15T14:53:38;14.23;;;11.70;;
23304;SDS011;11821;51.456;8.844;2023-02-15T14:56:19;15.63;;;12.30;;
23304;SDS011;11821;51.456;8.844;2023-02-15T15:01:17;16.55;;;12.52;;
23304;SDS011;11821;51.456;8.844;2023-02-15T15:03:51;14.32;;;11.73;;
23304;SDS011;11821;51.456;8.844;2023-02-15T15:06:24;15.50;;;12.35;;
23304;SDS011;11821;51.456;8.844;2023-02-15T15:08:50;16.25;;;12.38;;
23304;SDS011;11821;51.456;8.844;2023-02-15T15:14:00;20.52;;;14.48;;
23304;SDS011;11821;51.456;8.844;2023-02-15T15:18:56;15.88;;;12.55;;
23304;SDS011;11821;51.456;8.844;2023-02-15T15:24:08;34.05;;;18.52;;
23304;SDS011;11821;51.456;8.844;2023-02-15T15:26:36;20.02;;;14.43;;
23304;SDS011;11821;51.456;8.844;2023-02-15T15:29:06;23.77;;;15.38;;
23304;SDS011;11821;51.456;8.844;2023-02-15T15:42:13;22.10;;;14.70;;
23304;SDS011;11821;51.456;8.844;2023-02-15T15:49:49;18.05;;;13.85;;
23304;SDS011;11821;51.456;8.844;2023-02-15T15:52:19;17.38;;;13.05;;
23304;SDS011;11821;51.456;8.844;2023-02-15T15:54:48;17.67;;;13.27;;
23304;SDS011;11821;51.456;8.844;2023-02-15T15:59:59;17.48;;;13.43;;
23304;SDS011;11821;51.456;8.844;2023-02-15T16:02:26;17.20;;;13.15;;
23304;SDS011;11821;51.456;8.844;2023-02-15T16:04:53;18.45;;;12.98;;
23304;SDS011;11821;51.456;8.844;2023-02-15T16:12:22;21.70;;;14.15;;
23304;SDS011;11821;51.456;8.844;2023-02-15T16:14:49;19.38;;;13.85;;
23304;SDS011;11821;51.456;8.844;2023-02-15T16:17:18;22.88;;;15.00;;
23304;SDS011;11821;51.456;8.844;2023-02-15T16:19:45;20.90;;;14.88;;
23304;SDS011;11821;51.456;8.844;2023-02-15T16:22:30;20.65;;;14.25;;
23304;SDS011;11821;51.456;8.844;2023-02-15T16:27:41;24.48;;;16.42;;
23304;SDS011;11821;51.456;8.844;2023-02-15T16:32:47;21.88;;;14.75;;
23304;SDS011;11821;51.456;8.844;2023-02-15T16:35:17;29.55;;;17.13;;
23304;SDS011;11821;51.456;8.844;2023-02-15T16:37:44;27.38;;;18.52;;
23304;SDS011;11821;51.456;8.844;2023-02-15T16:40:33;25.48;;;17.00;;
23304;SDS011;11821;51.456;8.844;2023-02-15T16:43:01;22.20;;;14.40;;
23304;SDS011;11821;51.456;8.844;2023-02-15T16:45:28;20.88;;;14.45;;
23304;SDS011;11821;51.456;8.844;2023-02-15T16:47:59;22.40;;;14.48;;
23304;SDS011;11821;51.456;8.844;2023-02-15T16:50:29;27.20;;;17.33;;
23304;SDS011;11821;51.456;8.844;2023-02-15T16:52:57;25.17;;;16.27;;
23304;SDS011;11821;51.456;8.844;2023-02-15T16:55:27;22.90;;;15.68;;
23304;SDS011;11821;51.456;8.844;2023-02-15T16:57:55;38.22;;;21.48;;
23304;SDS011;11821;51.456;8.844;2023-02-15T17:00:28;44.05;;;23.77;;
23304;SDS011;11821;51.456;8.844;2023-02-15T17:05:22;24.02;;;16.27;;
23304;SDS011;11821;51.456;8.844;2023-02-15T17:07:50;29.35;;;18.02;;
23304;SDS011;11821;51.456;8.844;2023-02-15T17:13:29;28.08;;;16.27;;
23304;SDS011;11821;51.456;8.844;2023-02-15T17:18:30;24.42;;;16.38;;
23304;SDS011;11821;51.456;8.844;2023-02-15T17:20:58;22.98;;;15.40;;
23304;SDS011;11821;51.456;8.844;2023-02-15T17:23:28;26.77;;;17.17;;
23304;SDS011;11821;51.456;8.844;2023-02-15T17:25:56;28.30;;;16.80;;
23304;SDS011;11821;51.456;8.844;2023-02-15T17:28:24;27.38;;;17.13;;
23304;SDS011;11821;51.456;8.844;2023-02-15T17:30:51;33.63;;;16.83;;
23304;SDS011;11821;51.456;8.844;2023-02-15T17:33:19;59.03;;;25.50;;
23304;SDS011;11821;51.456;8.844;2023-02-15T17:36:02;30.65;;;19.15;;
23304;SDS011;11821;51.456;8.844;2023-02-15T17:38:31;32.78;;;19.23;;
23304;SDS011;11821;51.456;8.844;2023-02-15T17:41:00;32.92;;;18.17;;
23304;SDS011;11821;51.456;8.844;2023-02-15T17:43:27;37.80;;;20.98;;
23304;SDS011;11821;51.456;8.844;2023-02-15T17:45:54;41.17;;;22.42;;
23304;SDS011;11821;51.456;8.844;2023-02-15T17:48:28;28.55;;;17.40;;
23304;SDS011;11821;51.456;8.844;2023-02-15T17:50:58;29.45;;;17.40;;
23304;SDS011;11821;51.456;8.844;2023-02-15T17:53:24;28.95;;;16.35;;
23304;SDS011;11821;51.456;8.844;2023-02-15T17:55:51;34.42;;;19.50;;
23304;SDS011;11821;51.456;8.844;2023-02-15T17:58:18;29.35;;;18.35;;
23304;SDS011;11821;51.456;8.844;2023-02-15T18:00:52;35.22;;;19.90;;
23304;SDS011;11821;51.456;8.844;2023-02-15T18:03:43;28.60;;;19.17;;
23304;SDS011;11821;51.456;8.844;2023-02-15T18:06:28;29.00;;;17.77;;
23304;SDS011;11821;51.456;8.844;2023-02-15T18:09:14;29.02;;;18.33;;